LFLX 170830Z AUTO 23016KT 9999 -RA FEW015 SCT052 OVC066 08/07 Q1021 BECMG 24010G22KT

ElémentsDécodage
LFLX Station météo située sur l'aérodrome de CHATEAUROUX Déols
170830Z émis le 17 du mois à 08h30 UTC
AUTO Bulletin édité par un automate
23016KT vent du 230°, 16 noeuds
9999 visibilité horizontale supérieure à 10 Km
-RA faible pluie
FEW015 nuages rares (1/8 à 2/8) à 1500 pieds
SCT052 nuages épars (3/8 à 4/8) à 5200 pieds
OVC066 couverture nuageuse totale (8/8) à 6600 pieds
08/07 température 08°C, point de rosée 07°C
 soit une humidité relative de 93%
Q1021 la pression au niveau de la mer (QNH) est de 1021 hPa
BECMG fluctuation du temps prévue
24010G22KT vent du 240°, moyenne: 10 noeuds, avec rafales à 22 noeuds